sensor_id;sensor_type;location;lat;lon;timestamp;temperature;humidity
15609;DHT22;28705;45.642;13.758;2022-08-11T00:02:25;29.60;33.90
15609;DHT22;28705;45.642;13.758;2022-08-11T00:04:55;29.60;34.10
15609;DHT22;28705;45.642;13.758;2022-08-11T00:07:24;29.60;34.20
15609;DHT22;28705;45.642;13.758;2022-08-11T00:09:52;29.60;34.10
15609;DHT22;28705;45.642;13.758;2022-08-11T00:12:20;29.60;34.20
15609;DHT22;28705;45.642;13.758;2022-08-11T00:14:55;29.60;34.20
15609;DHT22;28705;45.642;13.758;2022-08-11T00:17:26;29.50;34.10
15609;DHT22;28705;45.642;13.758;2022-08-11T00:20:01;29.50;34.10
15609;DHT22;28705;45.642;13.758;2022-08-11T00:22:31;29.50;34.10
15609;DHT22;28705;45.642;13.758;2022-08-11T00:25:00;29.50;34.00
15609;DHT22;28705;45.642;13.758;2022-08-11T00:27:37;29.50;34.10
15609;DHT22;28705;45.642;13.758;2022-08-11T00:30:05;29.50;34.10
15609;DHT22;28705;45.642;13.758;2022-08-11T00:32:33;29.50;34.30
15609;DHT22;28705;45.642;13.758;2022-08-11T00:35:03;29.40;34.10
15609;DHT22;28705;45.642;13.758;2022-08-11T00:37:32;29.50;34.00
15609;DHT22;28705;45.642;13.758;2022-08-11T00:40:02;29.50;33.90
15609;DHT22;28705;45.642;13.758;2022-08-11T00:42:42;29.50;34.00
15609;DHT22;28705;45.642;13.758;2022-08-11T00:45:17;29.40;34.10
15609;DHT22;28705;45.642;13.758;2022-08-11T00:47:55;29.40;34.40
15609;DHT22;28705;45.642;13.758;2022-08-11T00:50:37;29.40;34.60
15609;DHT22;28705;45.642;13.758;2022-08-11T00:53:29;29.30;34.70
15609;DHT22;28705;45.642;13.758;2022-08-11T00:59:47;29.40;34.60
15609;DHT22;28705;45.642;13.758;2022-08-11T01:02:40;29.40;34.70
15609;DHT22;28705;45.642;13.758;2022-08-11T01:11:52;29.40;34.40
15609;DHT22;28705;45.642;13.758;2022-08-11T01:14:58;29.40;34.60
15609;DHT22;28705;45.642;13.758;2022-08-11T01:21:05;29.30;34.50
15609;DHT22;28705;45.642;13.758;2022-08-11T01:24:16;29.40;34.40
15609;DHT22;28705;45.642;13.758;2022-08-11T01:42:37;29.20;33.70
15609;DHT22;28705;45.642;13.758;2022-08-11T01:45:35;29.20;33.60
15609;DHT22;28705;45.642;13.758;2022-08-11T01:48:11;29.20;34.10
15609;DHT22;28705;45.642;13.758;2022-08-11T01:50:56;29.10;33.80
15609;DHT22;28705;45.642;13.758;2022-08-11T01:53:33;29.10;33.90
15609;DHT22;28705;45.642;13.758;2022-08-11T01:56:14;29.10;33.90
15609;DHT22;28705;45.642;13.758;2022-08-11T01:58:49;29.10;33.80
15609;DHT22;28705;45.642;13.758;2022-08-11T02:01:37;29.10;33.70
15609;DHT22;28705;45.642;13.758;2022-08-11T02:04:17;29.00;33.40
15609;DHT22;28705;45.642;13.758;2022-08-11T02:06:51;29.00;33.40
15609;DHT22;28705;45.642;13.758;2022-08-11T02:12:35;29.00;33.10
15609;DHT22;28705;45.642;13.758;2022-08-11T02:15:13;29.00;33.30
15609;DHT22;28705;45.642;13.758;2022-08-11T02:17:48;29.00;33.20
15609;DHT22;28705;45.642;13.758;2022-08-11T02:20:19;29.00;33.10
15609;DHT22;28705;45.642;13.758;2022-08-11T02:23:16;29.00;32.80
15609;DHT22;28705;45.642;13.758;2022-08-11T02:26:09;29.00;32.70
15609;DHT22;28705;45.642;13.758;2022-08-11T02:28:50;29.00;32.80
15609;DHT22;28705;45.642;13.758;2022-08-11T02:31:26;29.00;33.00
15609;DHT22;28705;45.642;13.758;2022-08-11T02:34:23;29.00;32.80
15609;DHT22;28705;45.642;13.758;2022-08-11T02:36:58;29.00;32.80
15609;DHT22;28705;45.642;13.758;2022-08-11T02:39:35;29.00;32.70
15609;DHT22;28705;45.642;13.758;2022-08-11T02:42:15;29.00;32.90
15609;DHT22;28705;45.642;13.758;2022-08-11T02:45:11;29.00;32.90
15609;DHT22;28705;45.642;13.758;2022-08-11T02:47:53;29.00;32.70
15609;DHT22;28705;45.642;13.758;2022-08-11T02:50:41;28.90;32.80
15609;DHT22;28705;45.642;13.758;2022-08-11T02:53:20;28.90;32.80
15609;DHT22;28705;45.642;13.758;2022-08-11T02:55:59;28.90;32.90
15609;DHT22;28705;45.642;13.758;2022-08-11T02:58:40;28.90;32.90
15609;DHT22;28705;45.642;13.758;2022-08-11T03:01:15;28.90;33.20
15609;DHT22;28705;45.642;13.758;2022-08-11T03:03:52;28.90;33.20
15609;DHT22;28705;45.642;13.758;2022-08-11T03:06:28;28.90;33.20
15609;DHT22;28705;45.642;13.758;2022-08-11T03:09:05;28.90;33.20
15609;DHT22;28705;45.642;13.758;2022-08-11T03:11:55;28.90;33.30
15609;DHT22;28705;45.642;13.758;2022-08-11T03:14:47;28.90;33.40
15609;DHT22;28705;45.642;13.758;2022-08-11T03:17:35;28.90;33.40
15609;DHT22;28705;45.642;13.758;2022-08-11T03:20:17;28.90;33.30
15609;DHT22;28705;45.642;13.758;2022-08-11T03:22:52;28.90;33.40
15609;DHT22;28705;45.642;13.758;2022-08-11T03:25:29;28.90;33.50
15609;DHT22;28705;45.642;13.758;2022-08-11T03:28:05;28.80;33.50
15609;DHT22;28705;45.642;13.758;2022-08-11T03:30:42;28.80;33.40
15609;DHT22;28705;45.642;13.758;2022-08-11T03:33:20;28.80;33.20
15609;DHT22;28705;45.642;13.758;2022-08-11T03:36:15;28.80;33.40
15609;DHT22;28705;45.642;13.758;2022-08-11T03:39:00;28.80;33.40
15609;DHT22;28705;45.642;13.758;2022-08-11T03:41:34;28.80;33.50
15609;DHT22;28705;45.642;13.758;2022-08-11T03:44:36;28.80;33.40
15609;DHT22;28705;45.642;13.758;2022-08-11T03:47:22;28.80;33.20
15609;DHT22;28705;45.642;13.758;2022-08-11T03:50:05;28.70;33.10
15609;DHT22;28705;45.642;13.758;2022-08-11T03:52:52;28.70;33.10
15609;DHT22;28705;45.642;13.758;2022-08-11T03:55:32;28.70;33.20
15609;DHT22;28705;45.642;13.758;2022-08-11T03:58:41;28.70;33.20
15609;DHT22;28705;45.642;13.758;2022-08-11T04:04:43;28.80;33.30
15609;DHT22;28705;45.642;13.758;2022-08-11T04:07:43;28.80;33.30
15609;DHT22;28705;45.642;13.758;2022-08-11T04:10:51;28.80;33.10
15609;DHT22;28705;45.642;13.758;2022-08-11T04:13:39;28.80;33.20
15609;DHT22;28705;45.642;13.758;2022-08-11T04:16:28;28.80;33.20
15609;DHT22;28705;45.642;13.758;2022-08-11T04:19:29;28.70;33.20
15609;DHT22;28705;45.642;13.758;2022-08-11T04:22:30;28.70;33.20
15609;DHT22;28705;45.642;13.758;2022-08-11T04:25:28;28.70;33.20
15609;DHT22;28705;45.642;13.758;2022-08-11T04:28:32;28.70;33.20
15609;DHT22;28705;45.642;13.758;2022-08-11T04:31:12;28.70;33.30
15609;DHT22;28705;45.642;13.758;2022-08-11T04:34:04;28.70;33.20
15609;DHT22;28705;45.642;13.758;2022-08-11T04:36:52;28.70;33.30
15609;DHT22;28705;45.642;13.758;2022-08-11T04:39:59;28.70;33.40
15609;DHT22;28705;45.642;13.758;2022-08-11T04:46:23;28.70;33.50
15609;DHT22;28705;45.642;13.758;2022-08-11T05:05:21;28.70;33.30
15609;DHT22;28705;45.642;13.758;2022-08-11T05:08:21;28.70;33.50
15609;DHT22;28705;45.642;13.758;2022-08-11T05:11:06;28.70;33.60
15609;DHT22;28705;45.642;13.758;2022-08-11T05:13:44;28.70;33.80
15609;DHT22;28705;45.642;13.758;2022-08-11T05:16:33;28.70;34.30
15609;DHT22;28705;45.642;13.758;2022-08-11T05:19:23;28.70;34.90
15609;DHT22;28705;45.642;13.758;2022-08-11T05:22:11;28.70;34.80
15609;DHT22;28705;45.642;13.758;2022-08-11T05:25:02;28.80;34.70
15609;DHT22;28705;45.642;13.758;2022-08-11T05:27:53;28.80;34.60
15609;DHT22;28705;45.642;13.758;2022-08-11T05:30:42;28.80;34.40
15609;DHT22;28705;45.642;13.758;2022-08-11T05:33:32;28.80;34.70
15609;DHT22;28705;45.642;13.758;2022-08-11T05:36:23;28.80;34.70
15609;DHT22;28705;45.642;13.758;2022-08-11T05:38:56;28.80;34.70
15609;DHT22;28705;45.642;13.758;2022-08-11T05:41:41;28.80;34.60
15609;DHT22;28705;45.642;13.758;2022-08-11T05:44:26;28.80;34.60
15609;DHT22;28705;45.642;13.758;2022-08-11T05:47:21;28.70;34.40
15609;DHT22;28705;45.642;13.758;2022-08-11T05:50:08;28.70;34.20
15609;DHT22;28705;45.642;13.758;2022-08-11T05:52:54;28.70;34.20
15609;DHT22;28705;45.642;13.758;2022-08-11T05:55:41;28.80;34.30
15609;DHT22;28705;45.642;13.758;2022-08-11T05:58:31;28.70;34.20
15609;DHT22;28705;45.642;13.758;2022-08-11T06:00:59;28.70;34.20
15609;DHT22;28705;45.642;13.758;2022-08-11T06:03:28;28.70;34.20
15609;DHT22;28705;45.642;13.758;2022-08-11T06:05:57;28.70;34.20
15609;DHT22;28705;45.642;13.758;2022-08-11T06:08:29;28.70;34.20
15609;DHT22;28705;45.642;13.758;2022-08-11T06:11:02;28.80;34.20
15609;DHT22;28705;45.642;13.758;2022-08-11T06:13:30;28.80;34.30
15609;DHT22;28705;45.642;13.758;2022-08-11T06:15:58;28.80;34.30
15609;DHT22;28705;45.642;13.758;2022-08-11T06:18:26;28.80;34.20
15609;DHT22;28705;45.642;13.758;2022-08-11T06:20:55;28.80;34.30
15609;DHT22;28705;45.642;13.758;2022-08-11T06:23:24;28.80;34.20
15609;DHT22;28705;45.642;13.758;2022-08-11T06:25:57;28.80;34.30
15609;DHT22;28705;45.642;13.758;2022-08-11T06:28:31;28.80;34.40
15609;DHT22;28705;45.642;13.758;2022-08-11T06:30:59;28.80;34.30
15609;DHT22;28705;45.642;13.758;2022-08-11T06:33:34;28.80;34.40
15609;DHT22;28705;45.642;13.758;2022-08-11T06:36:09;28.80;34.30
15609;DHT22;28705;45.642;13.758;2022-08-11T06:38:48;28.70;34.20
15609;DHT22;28705;45.642;13.758;2022-08-11T06:41:20;28.70;34.10
15609;DHT22;28705;45.642;13.758;2022-08-11T06:46:49;28.70;34.20
15609;DHT22;28705;45.642;13.758;2022-08-11T06:49:21;28.70;34.20
15609;DHT22;28705;45.642;13.758;2022-08-11T06:52:08;28.70;34.20
15609;DHT22;28705;45.642;13.758;2022-08-11T06:54:41;28.70;34.20
15609;DHT22;28705;45.642;13.758;2022-08-11T06:57:12;28.70;34.40
15609;DHT22;28705;45.642;13.758;2022-08-11T06:59:58;28.80;34.30
15609;DHT22;28705;45.642;13.758;2022-08-11T07:02:57;28.80;34.10
15609;DHT22;28705;45.642;13.758;2022-08-11T07:05:37;28.80;34.10
15609;DHT22;28705;45.642;13.758;2022-08-11T07:11:44;28.80;34.20
15609;DHT22;28705;45.642;13.758;2022-08-11T07:14:29;28.80;34.30
15609;DHT22;28705;45.642;13.758;2022-08-11T07:17:18;28.80;34.20
15609;DHT22;28705;45.642;13.758;2022-08-11T07:19:50;28.80;34.20
15609;DHT22;28705;45.642;13.758;2022-08-11T07:22:36;28.90;34.20
15609;DHT22;28705;45.642;13.758;2022-08-11T07:25:31;28.90;34.20
15609;DHT22;28705;45.642;13.758;2022-08-11T07:28:22;28.90;34.20
15609;DHT22;28705;45.642;13.758;2022-08-11T07:31:09;28.90;34.20
15609;DHT22;28705;45.642;13.758;2022-08-11T07:33:43;28.90;34.20
15609;DHT22;28705;45.642;13.758;2022-08-11T07:36:11;28.90;34.20
15609;DHT22;28705;45.642;13.758;2022-08-11T07:38:42;29.00;34.20
15609;DHT22;28705;45.642;13.758;2022-08-11T07:41:12;28.90;34.20
15609;DHT22;28705;45.642;13.758;2022-08-11T07:43:41;29.00;34.30
15609;DHT22;28705;45.642;13.758;2022-08-11T07:46:14;29.00;34.30
15609;DHT22;28705;45.642;13.758;2022-08-11T07:49:01;29.10;34.20
15609;DHT22;28705;45.642;13.758;2022-08-11T07:51:47;29.10;34.10
15609;DHT22;28705;45.642;13.758;2022-08-11T07:54:32;29.10;34.20
15609;DHT22;28705;45.642;13.758;2022-08-11T07:56:59;29.10;34.00
15609;DHT22;28705;45.642;13.758;2022-08-11T07:59:27;29.10;33.80
15609;DHT22;28705;45.642;13.758;2022-08-11T08:02:11;29.10;33.60
15609;DHT22;28705;45.642;13.758;2022-08-11T08:04:58;29.10;33.40
15609;DHT22;28705;45.642;13.758;2022-08-11T08:07:43;29.20;33.30
15609;DHT22;28705;45.642;13.758;2022-08-11T08:10:28;29.10;33.60
15609;DHT22;28705;45.642;13.758;2022-08-11T08:13:14;29.20;33.80
15609;DHT22;28705;45.642;13.758;2022-08-11T08:16:00;29.20;33.00
15609;DHT22;28705;45.642;13.758;2022-08-11T08:18:45;29.20;33.30
15609;DHT22;28705;45.642;13.758;2022-08-11T08:21:14;29.20;33.30
15609;DHT22;28705;45.642;13.758;2022-08-11T08:23:43;29.20;33.20
15609;DHT22;28705;45.642;13.758;2022-08-11T08:26:13;29.20;32.80
15609;DHT22;28705;45.642;13.758;2022-08-11T08:28:55;29.20;32.50
15609;DHT22;28705;45.642;13.758;2022-08-11T08:31:45;29.30;32.00
15609;DHT22;28705;45.642;13.758;2022-08-11T08:34:12;29.30;32.00
15609;DHT22;28705;45.642;13.758;2022-08-11T08:36:44;29.40;32.10
15609;DHT22;28705;45.642;13.758;2022-08-11T08:39:13;29.40;32.00
15609;DHT22;28705;45.642;13.758;2022-08-11T08:41:42;29.40;31.90
15609;DHT22;28705;45.642;13.758;2022-08-11T08:44:12;29.40;31.70
15609;DHT22;28705;45.642;13.758;2022-08-11T08:46:42;29.40;32.00
15609;DHT22;28705;45.642;13.758;2022-08-11T08:49:15;29.40;32.00
15609;DHT22;28705;45.642;13.758;2022-08-11T08:51:45;29.50;31.50
15609;DHT22;28705;45.642;13.758;2022-08-11T08:54:18;29.60;30.80
15609;DHT22;28705;45.642;13.758;2022-08-11T08:56:48;29.60;30.60
15609;DHT22;28705;45.642;13.758;2022-08-11T08:59:21;29.70;30.30
15609;DHT22;28705;45.642;13.758;2022-08-11T09:01:54;29.70;31.00
15609;DHT22;28705;45.642;13.758;2022-08-11T09:04:24;29.80;31.30
15609;DHT22;28705;45.642;13.758;2022-08-11T09:06:53;29.70;31.20
15609;DHT22;28705;45.642;13.758;2022-08-11T09:09:22;29.70;31.60
15609;DHT22;28705;45.642;13.758;2022-08-11T09:11:49;29.70;30.90
15609;DHT22;28705;45.642;13.758;2022-08-11T09:14:20;29.70;31.20
15609;DHT22;28705;45.642;13.758;2022-08-11T09:16:47;29.70;31.40
15609;DHT22;28705;45.642;13.758;2022-08-11T09:19:17;29.70;31.20
15609;DHT22;28705;45.642;13.758;2022-08-11T09:21:47;29.70;32.00
15609;DHT22;28705;45.642;13.758;2022-08-11T09:24:38;29.70;32.30
15609;DHT22;28705;45.642;13.758;2022-08-11T09:27:24;29.80;32.20
15609;DHT22;28705;45.642;13.758;2022-08-11T09:29:52;29.80;30.60
15609;DHT22;28705;45.642;13.758;2022-08-11T09:32:20;29.90;30.10
15609;DHT22;28705;45.642;13.758;2022-08-11T09:34:49;29.90;31.40
15609;DHT22;28705;45.642;13.758;2022-08-11T09:37:19;29.90;31.60
15609;DHT22;28705;45.642;13.758;2022-08-11T09:40:20;29.90;31.70
15609;DHT22;28705;45.642;13.758;2022-08-11T09:42:58;29.80;31.70
15609;DHT22;28705;45.642;13.758;2022-08-11T09:45:46;29.80;31.90
15609;DHT22;28705;45.642;13.758;2022-08-11T09:48:16;29.80;32.70
15609;DHT22;28705;45.642;13.758;2022-08-11T09:50:45;29.80;33.10
15609;DHT22;28705;45.642;13.758;2022-08-11T09:53:15;29.70;33.40
15609;DHT22;28705;45.642;13.758;2022-08-11T09:55:48;29.80;33.90
15609;DHT22;28705;45.642;13.758;2022-08-11T09:58:16;29.70;34.10
15609;DHT22;28705;45.642;13.758;2022-08-11T10:00:44;29.70;34.90
15609;DHT22;28705;45.642;13.758;2022-08-11T10:03:18;29.70;34.70
15609;DHT22;28705;45.642;13.758;2022-08-11T10:05:48;29.70;34.20
15609;DHT22;28705;45.642;13.758;2022-08-11T10:08:37;29.70;34.50
15609;DHT22;28705;45.642;13.758;2022-08-11T10:11:10;29.70;34.60
15609;DHT22;28705;45.642;13.758;2022-08-11T10:13:42;29.70;34.70
15609;DHT22;28705;45.642;13.758;2022-08-11T10:16:26;29.70;35.10
15609;DHT22;28705;45.642;13.758;2022-08-11T10:18:55;29.70;35.20
15609;DHT22;28705;45.642;13.758;2022-08-11T10:21:27;29.70;34.90
15609;DHT22;28705;45.642;13.758;2022-08-11T10:23:58;29.70;35.00
15609;DHT22;28705;45.642;13.758;2022-08-11T10:26:46;29.70;34.90
15609;DHT22;28705;45.642;13.758;2022-08-11T10:29:21;29.70;34.90
15609;DHT22;28705;45.642;13.758;2022-08-11T10:32:07;29.70;34.80
15609;DHT22;28705;45.642;13.758;2022-08-11T10:34:53;29.70;34.70
15609;DHT22;28705;45.642;13.758;2022-08-11T10:37:22;29.70;34.70
15609;DHT22;28705;45.642;13.758;2022-08-11T10:39:51;29.70;34.70
15609;DHT22;28705;45.642;13.758;2022-08-11T10:42:22;29.70;34.60
15609;DHT22;28705;45.642;13.758;2022-08-11T10:45:08;29.70;34.60
15609;DHT22;28705;45.642;13.758;2022-08-11T10:47:56;29.70;34.50
15609;DHT22;28705;45.642;13.758;2022-08-11T10:50:23;29.70;34.40
15609;DHT22;28705;45.642;13.758;2022-08-11T10:53:10;29.70;34.30
15609;DHT22;28705;45.642;13.758;2022-08-11T10:55:56;29.70;34.20
15609;DHT22;28705;45.642;13.758;2022-08-11T10:58:43;29.70;34.20
15609;DHT22;28705;45.642;13.758;2022-08-11T11:01:15;29.70;34.10
15609;DHT22;28705;45.642;13.758;2022-08-11T11:03:42;29.70;34.20
15609;DHT22;28705;45.642;13.758;2022-08-11T11:06:18;29.70;34.10
15609;DHT22;28705;45.642;13.758;2022-08-11T11:08:52;29.70;34.10
15609;DHT22;28705;45.642;13.758;2022-08-11T11:11:22;29.70;34.10
15609;DHT22;28705;45.642;13.758;2022-08-11T11:14:15;29.70;34.20
15609;DHT22;28705;45.642;13.758;2022-08-11T11:17:01;29.70;34.00
15609;DHT22;28705;45.642;13.758;2022-08-11T11:19:46;29.70;33.90
15609;DHT22;28705;45.642;13.758;2022-08-11T11:22:16;29.70;33.90
15609;DHT22;28705;45.642;13.758;2022-08-11T11:25:09;29.80;33.90
15609;DHT22;28705;45.642;13.758;2022-08-11T11:27:52;29.80;33.90
15609;DHT22;28705;45.642;13.758;2022-08-11T11:30:24;29.70;33.70
15609;DHT22;28705;45.642;13.758;2022-08-11T11:33:07;29.70;33.60
15609;DHT22;28705;45.642;13.758;2022-08-11T11:35:43;29.80;33.60
15609;DHT22;28705;45.642;13.758;2022-08-11T11:38:12;29.70;33.50
15609;DHT22;28705;45.642;13.758;2022-08-11T11:40:39;29.80;33.60
15609;DHT22;28705;45.642;13.758;2022-08-11T11:43:07;29.70;33.50
15609;DHT22;28705;45.642;13.758;2022-08-11T11:45:36;29.70;33.50
15609;DHT22;28705;45.642;13.758;2022-08-11T11:48:04;29.80;33.50
15609;DHT22;28705;45.642;13.758;2022-08-11T11:50:34;29.70;33.30
15609;DHT22;28705;45.642;13.758;2022-08-11T11:53:04;29.80;33.50
15609;DHT22;28705;45.642;13.758;2022-08-11T11:55:32;29.70;33.40
15609;DHT22;28705;45.642;13.758;2022-08-11T11:58:00;29.80;33.40
15609;DHT22;28705;45.642;13.758;2022-08-11T12:00:47;29.80;33.60
15609;DHT22;28705;45.642;13.758;2022-08-11T12:03:33;29.80;33.80
15609;DHT22;28705;45.642;13.758;2022-08-11T12:06:02;29.80;34.10
15609;DHT22;28705;45.642;13.758;2022-08-11T12:08:30;29.80;34.20
15609;DHT22;28705;45.642;13.758;2022-08-11T12:11:00;29.70;33.90
15609;DHT22;28705;45.642;13.758;2022-08-11T12:13:48;29.80;33.90
15609;DHT22;28705;45.642;13.758;2022-08-11T12:16:19;29.80;33.90
15609;DHT22;28705;45.642;13.758;2022-08-11T12:18:48;29.80;33.80
15609;DHT22;28705;45.642;13.758;2022-08-11T12:21:16;29.80;33.70
15609;DHT22;28705;45.642;13.758;2022-08-11T12:23:46;29.80;33.80
15609;DHT22;28705;45.642;13.758;2022-08-11T12:26:31;29.80;33.70
15609;DHT22;28705;45.642;13.758;2022-08-11T12:29:17;29.80;33.50
15609;DHT22;28705;45.642;13.758;2022-08-11T12:31:47;29.80;33.50
15609;DHT22;28705;45.642;13.758;2022-08-11T12:34:15;29.80;33.50
15609;DHT22;28705;45.642;13.758;2022-08-11T12:36:47;29.80;33.40
15609;DHT22;28705;45.642;13.758;2022-08-11T12:39:19;29.80;33.40
15609;DHT22;28705;45.642;13.758;2022-08-11T12:42:08;29.80;33.50
15609;DHT22;28705;45.642;13.758;2022-08-11T12:44:54;29.80;33.40
15609;DHT22;28705;45.642;13.758;2022-08-11T12:47:43;29.80;33.10
15609;DHT22;28705;45.642;13.758;2022-08-11T12:50:26;29.80;33.20
15609;DHT22;28705;45.642;13.758;2022-08-11T12:53:11;29.90;34.60
15609;DHT22;28705;45.642;13.758;2022-08-11T12:55:39;30.10;36.40
15609;DHT22;28705;45.642;13.758;2022-08-11T12:58:26;30.20;35.00
15609;DHT22;28705;45.642;13.758;2022-08-11T13:00:53;30.30;36.00
15609;DHT22;28705;45.642;13.758;2022-08-11T13:03:40;30.50;34.70
15609;DHT22;28705;45.642;13.758;2022-08-11T13:06:26;30.50;32.70
15609;DHT22;28705;45.642;13.758;2022-08-11T13:08:54;30.50;32.60
15609;DHT22;28705;45.642;13.758;2022-08-11T13:11:24;30.50;32.50
15609;DHT22;28705;45.642;13.758;2022-08-11T13:14:08;30.40;34.40
15609;DHT22;28705;45.642;13.758;2022-08-11T13:16:36;30.40;32.60
15609;DHT22;28705;45.642;13.758;2022-08-11T13:19:20;30.40;33.10
15609;DHT22;28705;45.642;13.758;2022-08-11T13:21:48;30.40;33.40
15609;DHT22;28705;45.642;13.758;2022-08-11T13:24:16;30.40;33.70
15609;DHT22;28705;45.642;13.758;2022-08-11T13:26:44;30.40;33.40
15609;DHT22;28705;45.642;13.758;2022-08-11T13:29:12;30.30;33.70
15609;DHT22;28705;45.642;13.758;2022-08-11T13:31:40;30.30;33.60
15609;DHT22;28705;45.642;13.758;2022-08-11T13:34:09;30.30;33.40
15609;DHT22;28705;45.642;13.758;2022-08-11T13:36:38;30.30;34.00
15609;DHT22;28705;45.642;13.758;2022-08-11T13:39:05;30.30;33.80
15609;DHT22;28705;45.642;13.758;2022-08-11T13:41:34;30.30;33.60
15609;DHT22;28705;45.642;13.758;2022-08-11T13:44:08;30.30;33.60
15609;DHT22;28705;45.642;13.758;2022-08-11T13:46:35;30.30;33.40
15609;DHT22;28705;45.642;13.758;2022-08-11T13:49:04;30.30;33.20
15609;DHT22;28705;45.642;13.758;2022-08-11T13:51:34;30.30;33.40
15609;DHT22;28705;45.642;13.758;2022-08-11T13:54:06;30.20;33.50
15609;DHT22;28705;45.642;13.758;2022-08-11T13:56:36;30.20;33.60
15609;DHT22;28705;45.642;13.758;2022-08-11T13:59:06;30.20;33.90
15609;DHT22;28705;45.642;13.758;2022-08-11T14:01:36;30.20;34.30
15609;DHT22;28705;45.642;13.758;2022-08-11T14:04:08;30.20;35.10
15609;DHT22;28705;45.642;13.758;2022-08-11T14:06:38;30.20;34.80
15609;DHT22;28705;45.642;13.758;2022-08-11T14:09:09;30.20;34.80
15609;DHT22;28705;45.642;13.758;2022-08-11T14:11:37;30.20;34.90
15609;DHT22;28705;45.642;13.758;2022-08-11T14:14:25;30.20;34.90
15609;DHT22;28705;45.642;13.758;2022-08-11T14:16:55;30.20;34.60
15609;DHT22;28705;45.642;13.758;2022-08-11T14:19:24;30.20;34.60
15609;DHT22;28705;45.642;13.758;2022-08-11T14:21:52;30.20;34.60
15609;DHT22;28705;45.642;13.758;2022-08-11T14:24:36;30.10;34.40
15609;DHT22;28705;45.642;13.758;2022-08-11T14:27:05;30.20;34.30
15609;DHT22;28705;45.642;13.758;2022-08-11T14:29:33;30.10;34.00
15609;DHT22;28705;45.642;13.758;2022-08-11T14:32:05;30.10;33.90
15609;DHT22;28705;45.642;13.758;2022-08-11T14:34:33;30.10;34.00
15609;DHT22;28705;45.642;13.758;2022-08-11T14:37:02;30.10;34.10
15609;DHT22;28705;45.642;13.758;2022-08-11T14:39:35;30.10;34.10
15609;DHT22;28705;45.642;13.758;2022-08-11T14:42:05;30.10;33.80
15609;DHT22;28705;45.642;13.758;2022-08-11T14:44:52;30.10;34.10
15609;DHT22;28705;45.642;13.758;2022-08-11T14:47:39;30.10;34.10
15609;DHT22;28705;45.642;13.758;2022-08-11T14:50:12;30.10;33.80
15609;DHT22;28705;45.642;13.758;2022-08-11T14:52:46;30.10;33.60
15609;DHT22;28705;45.642;13.758;2022-08-11T14:55:16;30.10;33.70
15609;DHT22;28705;45.642;13.758;2022-08-11T14:58:02;30.10;33.70
15609;DHT22;28705;45.642;13.758;2022-08-11T15:00:31;30.10;33.80
15609;DHT22;28705;45.642;13.758;2022-08-11T15:03:00;30.10;33.80
15609;DHT22;28705;45.642;13.758;2022-08-11T15:05:38;30.10;34.20
15609;DHT22;28705;45.642;13.758;2022-08-11T15:08:08;30.10;34.40
15609;DHT22;28705;45.642;13.758;2022-08-11T15:10:40;30.20;34.40
15609;DHT22;28705;45.642;13.758;2022-08-11T15:13:07;30.10;34.40
15609;DHT22;28705;45.642;13.758;2022-08-11T15:15:36;30.10;34.30
15609;DHT22;28705;45.642;13.758;2022-08-11T15:18:22;30.10;34.10
15609;DHT22;28705;45.642;13.758;2022-08-11T15:20:51;30.10;34.30
15609;DHT22;28705;45.642;13.758;2022-08-11T15:23:37;30.10;34.30
15609;DHT22;28705;45.642;13.758;2022-08-11T15:26:29;30.20;34.20
15609;DHT22;28705;45.642;13.758;2022-08-11T15:29:20;30.20;34.40
15609;DHT22;28705;45.642;13.758;2022-08-11T15:32:16;30.10;34.10
15609;DHT22;28705;45.642;13.758;2022-08-11T15:35:02;30.10;34.20
15609;DHT22;28705;45.642;13.758;2022-08-11T15:37:55;30.10;34.20
15609;DHT22;28705;45.642;13.758;2022-08-11T15:40:27;30.10;34.20
15609;DHT22;28705;45.642;13.758;2022-08-11T15:43:20;30.10;34.30
15609;DHT22;28705;45.642;13.758;2022-08-11T15:46:08;30.10;34.10
15609;DHT22;28705;45.642;13.758;2022-08-11T15:48:42;30.10;34.40
15609;DHT22;28705;45.642;13.758;2022-08-11T15:51:15;30.10;34.50
15609;DHT22;28705;45.642;13.758;2022-08-11T15:53:51;30.10;34.70
15609;DHT22;28705;45.642;13.758;2022-08-11T15:56:20;30.10;34.80
15609;DHT22;28705;45.642;13.758;2022-08-11T15:58:51;30.10;35.00
15609;DHT22;28705;45.642;13.758;2022-08-11T16:01:38;30.20;35.00
15609;DHT22;28705;45.642;13.758;2022-08-11T16:04:24;30.10;34.90
15609;DHT22;28705;45.642;13.758;2022-08-11T16:06:56;30.10;35.00
15609;DHT22;28705;45.642;13.758;2022-08-11T16:09:27;30.10;35.00
15609;DHT22;28705;45.642;13.758;2022-08-11T16:11:59;30.20;34.90
15609;DHT22;28705;45.642;13.758;2022-08-11T16:14:32;30.10;34.80
15609;DHT22;28705;45.642;13.758;2022-08-11T16:17:18;30.10;34.80
15609;DHT22;28705;45.642;13.758;2022-08-11T16:19:50;30.10;34.90
15609;DHT22;28705;45.642;13.758;2022-08-11T16:22:22;30.10;34.80
15609;DHT22;28705;45.642;13.758;2022-08-11T16:25:02;30.10;34.90
15609;DHT22;28705;45.642;13.758;2022-08-11T16:27:31;30.10;35.00
15609;DHT22;28705;45.642;13.758;2022-08-11T16:30:03;30.10;35.00
15609;DHT22;28705;45.642;13.758;2022-08-11T16:32:33;30.10;35.80
15609;DHT22;28705;45.642;13.758;2022-08-11T16:35:02;30.10;35.10
15609;DHT22;28705;45.642;13.758;2022-08-11T16:37:48;30.10;35.20
15609;DHT22;28705;45.642;13.758;2022-08-11T16:40:35;30.10;35.30
15609;DHT22;28705;45.642;13.758;2022-08-11T16:43:05;30.10;35.40
15609;DHT22;28705;45.642;13.758;2022-08-11T16:45:53;30.10;35.50
15609;DHT22;28705;45.642;13.758;2022-08-11T16:48:40;30.10;35.50
15609;DHT22;28705;45.642;13.758;2022-08-11T16:51:10;30.30;28.80
15609;DHT22;28705;45.642;13.758;2022-08-11T16:53:38;30.50;27.90
15609;DHT22;28705;45.642;13.758;2022-08-11T16:56:06;30.60;27.40
15609;DHT22;28705;45.642;13.758;2022-08-11T16:58:37;30.70;27.50
15609;DHT22;28705;45.642;13.758;2022-08-11T17:01:24;30.70;27.60
15609;DHT22;28705;45.642;13.758;2022-08-11T17:03:57;30.70;27.30
15609;DHT22;28705;45.642;13.758;2022-08-11T17:06:45;30.70;27.70
15609;DHT22;28705;45.642;13.758;2022-08-11T17:09:29;30.70;28.40
15609;DHT22;28705;45.642;13.758;2022-08-11T17:12:16;30.60;29.40
15609;DHT22;28705;45.642;13.758;2022-08-11T17:15:14;30.60;30.40
15609;DHT22;28705;45.642;13.758;2022-08-11T17:18:02;30.50;30.00
15609;DHT22;28705;45.642;13.758;2022-08-11T17:20:31;30.50;30.30
15609;DHT22;28705;45.642;13.758;2022-08-11T17:23:00;30.40;30.00
15609;DHT22;28705;45.642;13.758;2022-08-11T17:25:45;30.40;30.40